createdAt,value
2024-01-28T00:07:46.054Z,4.30
2024-01-28T00:17:47.907Z,4.06
2024-01-28T00:27:49.805Z,4.11
2024-01-28T00:37:56.156Z,4.21
2024-01-28T00:47:58.310Z,4.15
2024-01-28T00:58:00.836Z,4.05
2024-01-28T01:08:03.056Z,4.05
2024-01-28T01:18:05.080Z,4.02
2024-01-28T01:28:07.681Z,4.19
2024-01-28T01:38:09.537Z,4.24
2024-01-28T01:48:13.260Z,4.09
2024-01-28T01:58:15.568Z,4.01
2024-01-28T02:08:17.276Z,3.77
2024-01-28T02:18:19.055Z,3.92
2024-01-28T02:28:22.550Z,3.70
2024-01-28T02:38:24.222Z,3.77
2024-01-28T02:48:26.177Z,3.55
2024-01-28T02:58:27.997Z,3.27
2024-01-28T03:08:29.659Z,3.13
2024-01-28T03:18:31.750Z,2.94
2024-01-28T03:28:33.536Z,2.90
2024-01-28T03:38:35.244Z,2.74
2024-01-28T03:48:37.057Z,2.62
2024-01-28T03:58:38.816Z,2.43
2024-01-28T04:08:40.625Z,2.46
2024-01-28T04:18:42.405Z,2.53
2024-01-28T04:28:44.328Z,2.43
2024-01-28T04:38:46.165Z,2.40
2024-01-28T04:48:48.190Z,2.22
2024-01-28T04:58:50.621Z,2.40
2024-01-28T05:08:52.488Z,2.22
2024-01-28T05:18:54.461Z,2.38
2024-01-28T05:28:56.637Z,2.11
2024-01-28T05:38:58.808Z,2.17
2024-01-28T05:49:00.694Z,2.17
2024-01-28T05:59:02.738Z,1.91
2024-01-28T06:09:06.198Z,2.12
2024-01-28T06:19:08.031Z,2.13
2024-01-28T06:29:09.989Z,1.87
2024-01-28T06:39:11.707Z,1.65
2024-01-28T06:49:16.766Z,1.64
2024-01-28T06:59:20.654Z,1.72
2024-01-28T07:09:22.815Z,1.87
2024-01-28T07:19:24.699Z,2.11
2024-01-28T07:29:26.367Z,2.07
2024-01-28T07:39:28.165Z,2.10
2024-01-28T07:49:30.101Z,2.43
2024-01-28T07:59:32.286Z,2.42
2024-01-28T08:09:34.678Z,2.52
2024-01-28T08:19:37.628Z,2.56
2024-01-28T08:29:40.024Z,2.90
2024-01-28T08:39:41.923Z,3.08
2024-01-28T08:49:45.345Z,3.35
2024-01-28T08:59:47.122Z,3.48
2024-01-28T09:09:49.050Z,3.68
2024-01-28T09:19:51.135Z,4.01
2024-01-28T09:29:53.089Z,4.26
2024-01-28T09:39:54.997Z,4.32
2024-01-28T09:49:59.364Z,4.55
2024-01-28T10:00:01.631Z,4.90
2024-01-28T10:10:17.522Z,5.13
2024-01-28T10:20:23.563Z,5.51
2024-01-28T10:30:25.442Z,5.54
2024-01-28T10:40:38.232Z,5.72
2024-01-28T10:50:40.276Z,5.90
2024-01-28T11:00:42.490Z,6.23
2024-01-28T11:10:44.822Z,6.51
2024-01-28T11:20:46.654Z,6.46
2024-01-28T11:30:53.388Z,6.69
2024-01-28T11:41:00.777Z,6.86
2024-01-28T11:51:02.862Z,7.14
2024-01-28T12:01:05.069Z,7.28
2024-01-28T12:11:07.735Z,7.27
2024-01-28T12:21:21.715Z,7.44
2024-01-28T12:31:24.049Z,7.70
2024-01-28T12:41:25.896Z,7.80
2024-01-28T12:51:27.779Z,7.68
2024-01-28T13:01:29.835Z,7.90
2024-01-28T13:11:32.408Z,8.05
2024-01-28T13:21:34.306Z,8.10
2024-01-28T13:31:36.517Z,8.14
2024-01-28T13:41:38.117Z,8.08
2024-01-28T13:51:39.897Z,7.96
2024-01-28T14:01:42.234Z,7.84
2024-01-28T14:11:44.455Z,8.00
2024-01-28T14:21:47.309Z,7.65
2024-01-28T14:31:49.050Z,7.62
2024-01-28T14:41:51.996Z,7.49
2024-01-28T14:51:54.908Z,7.41
2024-01-28T15:01:56.583Z,7.64
2024-01-28T15:11:58.399Z,7.31
2024-01-28T15:22:00.214Z,7.23
2024-01-28T15:32:02.081Z,6.78
2024-01-28T15:42:04.443Z,6.80
2024-01-28T15:52:06.568Z,6.54
2024-01-28T16:02:08.674Z,6.06
2024-01-28T16:12:10.637Z,5.73
2024-01-28T16:22:12.472Z,5.50
2024-01-28T16:32:14.369Z,5.13
2024-01-28T16:42:16.420Z,4.73
2024-01-28T16:52:21.483Z,4.68
2024-01-28T17:02:23.570Z,4.49
2024-01-28T17:12:25.299Z,4.31
2024-01-28T17:22:26.967Z,4.11
2024-01-28T17:32:28.711Z,3.63
2024-01-28T17:42:30.526Z,3.34
2024-01-28T17:52:32.419Z,3.23
2024-01-28T18:02:34.345Z,3.13
2024-01-28T18:12:36.594Z,2.86
2024-01-28T18:22:39.300Z,2.84
2024-01-28T18:32:41.147Z,2.75
2024-01-28T18:42:43.549Z,2.72
2024-01-28T18:52:45.964Z,2.53
2024-01-28T19:02:47.738Z,2.34
2024-01-28T19:12:49.591Z,2.02
2024-01-28T19:22:54.220Z,1.86
2024-01-28T19:32:56.100Z,1.67
2024-01-28T19:42:57.883Z,1.48
2024-01-28T19:52:59.871Z,1.52
2024-01-28T20:03:02.054Z,1.46
2024-01-28T20:13:05.904Z,1.36
2024-01-28T20:23:07.760Z,1.25
2024-01-28T20:33:09.651Z,1.19
2024-01-28T20:43:11.452Z,0.88
2024-01-28T20:53:13.379Z,0.98
2024-01-28T21:03:15.234Z,0.72
2024-01-28T21:13:17.030Z,0.60
2024-01-28T21:23:18.689Z,0.64
2024-01-28T21:33:21.157Z,0.70
2024-01-28T21:43:23.106Z,0.73
2024-01-28T21:53:24.705Z,0.46
2024-01-28T22:03:26.471Z,0.59
2024-01-28T22:13:29.049Z,0.68
2024-01-28T22:23:30.987Z,0.46
2024-01-28T22:33:33.156Z,0.31
2024-01-28T22:43:34.979Z,0.08
2024-01-28T22:53:36.853Z,0.16
2024-01-28T23:03:38.787Z,-0.04
2024-01-28T23:13:41.510Z,-0.18
2024-01-28T23:23:43.307Z,-0.30
2024-01-28T23:33:45.215Z,-0.29
2024-01-28T23:43:47.261Z,-0.39
2024-01-28T23:53:49.239Z,-0.43
